sensor_id;sensor_type;location;lat;lon;timestamp;P1;durP1;ratioP1;P2;durP2;ratioP2
2772;SDS011;1394;47.044;15.744;2023-04-06T00:00:31;25.17;;;1.90;;
2772;SDS011;1394;47.044;15.744;2023-04-06T00:02:58;25.10;;;2.03;;
2772;SDS011;1394;47.044;15.744;2023-04-06T00:05:27;25.17;;;2.00;;
2772;SDS011;1394;47.044;15.744;2023-04-06T00:07:57;27.03;;;1.60;;
2772;SDS011;1394;47.044;15.744;2023-04-06T00:10:24;25.17;;;2.00;;
2772;SDS011;1394;47.044;15.744;2023-04-06T00:12:51;25.40;;;1.70;;
2772;SDS011;1394;47.044;15.744;2023-04-06T00:15:19;25.03;;;1.80;;
2772;SDS011;1394;47.044;15.744;2023-04-06T00:17:46;25.30;;;1.83;;
2772;SDS011;1394;47.044;15.744;2023-04-06T00:20:14;24.70;;;1.60;;
2772;SDS011;1394;47.044;15.744;2023-04-06T00:22:43;24.60;;;1.80;;
2772;SDS011;1394;47.044;15.744;2023-04-06T00:25:10;25.33;;;1.80;;
2772;SDS011;1394;47.044;15.744;2023-04-06T00:27:40;26.70;;;2.70;;
2772;SDS011;1394;47.044;15.744;2023-04-06T00:30:08;26.57;;;2.80;;
2772;SDS011;1394;47.044;15.744;2023-04-06T00:32:36;26.47;;;2.67;;
2772;SDS011;1394;47.044;15.744;2023-04-06T00:35:03;26.23;;;3.00;;
2772;SDS011;1394;47.044;15.744;2023-04-06T00:37:31;25.87;;;2.50;;
2772;SDS011;1394;47.044;15.744;2023-04-06T00:39:59;25.27;;;2.17;;
2772;SDS011;1394;47.044;15.744;2023-04-06T00:42:27;26.77;;;2.20;;
2772;SDS011;1394;47.044;15.744;2023-04-06T00:44:56;24.60;;;1.80;;
2772;SDS011;1394;47.044;15.744;2023-04-06T00:47:24;25.07;;;1.77;;
2772;SDS011;1394;47.044;15.744;2023-04-06T00:49:51;25.20;;;2.17;;
2772;SDS011;1394;47.044;15.744;2023-04-06T00:52:18;25.93;;;2.00;;
2772;SDS011;1394;47.044;15.744;2023-04-06T00:54:46;25.17;;;1.90;;
2772;SDS011;1394;47.044;15.744;2023-04-06T00:57:15;25.13;;;1.83;;
2772;SDS011;1394;47.044;15.744;2023-04-06T00:59:42;25.60;;;1.70;;
2772;SDS011;1394;47.044;15.744;2023-04-06T01:02:10;25.23;;;1.90;;
2772;SDS011;1394;47.044;15.744;2023-04-06T01:04:38;25.13;;;1.97;;
2772;SDS011;1394;47.044;15.744;2023-04-06T01:07:05;25.77;;;2.27;;
2772;SDS011;1394;47.044;15.744;2023-04-06T01:09:32;25.47;;;2.03;;
2772;SDS011;1394;47.044;15.744;2023-04-06T01:12:01;24.83;;;1.87;;
2772;SDS011;1394;47.044;15.744;2023-04-06T01:14:29;25.63;;;1.67;;
2772;SDS011;1394;47.044;15.744;2023-04-06T01:16:57;24.77;;;1.80;;
2772;SDS011;1394;47.044;15.744;2023-04-06T01:19:25;25.40;;;1.90;;
2772;SDS011;1394;47.044;15.744;2023-04-06T01:21:52;24.93;;;2.00;;
2772;SDS011;1394;47.044;15.744;2023-04-06T01:24:22;24.87;;;1.90;;
2772;SDS011;1394;47.044;15.744;2023-04-06T01:26:49;25.17;;;1.93;;
2772;SDS011;1394;47.044;15.744;2023-04-06T01:29:19;25.70;;;1.77;;
2772;SDS011;1394;47.044;15.744;2023-04-06T01:31:46;24.77;;;2.00;;
2772;SDS011;1394;47.044;15.744;2023-04-06T01:34:13;24.50;;;1.67;;
2772;SDS011;1394;47.044;15.744;2023-04-06T01:36:41;24.83;;;1.90;;
2772;SDS011;1394;47.044;15.744;2023-04-06T01:39:08;24.90;;;2.00;;
2772;SDS011;1394;47.044;15.744;2023-04-06T01:41:37;25.47;;;1.90;;
2772;SDS011;1394;47.044;15.744;2023-04-06T01:44:05;25.47;;;1.87;;
2772;SDS011;1394;47.044;15.744;2023-04-06T01:46:32;26.93;;;2.27;;
2772;SDS011;1394;47.044;15.744;2023-04-06T01:48:59;25.13;;;2.30;;
2772;SDS011;1394;47.044;15.744;2023-04-06T01:51:26;27.70;;;2.17;;
2772;SDS011;1394;47.044;15.744;2023-04-06T01:53:55;24.97;;;2.07;;
2772;SDS011;1394;47.044;15.744;2023-04-06T01:56:25;26.37;;;1.80;;
2772;SDS011;1394;47.044;15.744;2023-04-06T01:58:54;25.70;;;1.80;;
2772;SDS011;1394;47.044;15.744;2023-04-06T02:01:25;25.77;;;1.90;;
2772;SDS011;1394;47.044;15.744;2023-04-06T02:03:53;25.37;;;2.00;;
2772;SDS011;1394;47.044;15.744;2023-04-06T02:06:21;24.87;;;1.80;;
2772;SDS011;1394;47.044;15.744;2023-04-06T02:08:48;24.83;;;1.93;;
2772;SDS011;1394;47.044;15.744;2023-04-06T02:11:15;24.80;;;1.90;;
2772;SDS011;1394;47.044;15.744;2023-04-06T02:13:42;24.60;;;1.63;;
2772;SDS011;1394;47.044;15.744;2023-04-06T02:16:11;24.87;;;1.87;;
2772;SDS011;1394;47.044;15.744;2023-04-06T02:18:38;25.00;;;2.03;;
2772;SDS011;1394;47.044;15.744;2023-04-06T02:21:05;24.90;;;2.00;;
2772;SDS011;1394;47.044;15.744;2023-04-06T02:23:33;25.33;;;2.10;;
2772;SDS011;1394;47.044;15.744;2023-04-06T02:26:01;25.50;;;2.07;;
2772;SDS011;1394;47.044;15.744;2023-04-06T02:28:28;25.20;;;2.30;;
2772;SDS011;1394;47.044;15.744;2023-04-06T02:30:55;24.70;;;1.77;;
2772;SDS011;1394;47.044;15.744;2023-04-06T02:33:24;24.70;;;1.90;;
2772;SDS011;1394;47.044;15.744;2023-04-06T02:35:51;25.50;;;2.00;;
2772;SDS011;1394;47.044;15.744;2023-04-06T02:38:18;25.67;;;2.10;;
2772;SDS011;1394;47.044;15.744;2023-04-06T02:40:46;24.80;;;1.80;;
2772;SDS011;1394;47.044;15.744;2023-04-06T02:43:13;26.87;;;2.90;;
2772;SDS011;1394;47.044;15.744;2023-04-06T02:45:42;28.70;;;4.60;;
2772;SDS011;1394;47.044;15.744;2023-04-06T02:48:12;28.23;;;3.90;;
2772;SDS011;1394;47.044;15.744;2023-04-06T02:50:41;27.67;;;3.33;;
2772;SDS011;1394;47.044;15.744;2023-04-06T02:53:12;26.27;;;2.80;;
2772;SDS011;1394;47.044;15.744;2023-04-06T02:55:39;27.87;;;2.00;;
2772;SDS011;1394;47.044;15.744;2023-04-06T02:58:06;26.37;;;2.40;;
2772;SDS011;1394;47.044;15.744;2023-04-06T03:00:33;26.50;;;2.47;;
2772;SDS011;1394;47.044;15.744;2023-04-06T03:03:01;26.17;;;2.90;;
2772;SDS011;1394;47.044;15.744;2023-04-06T03:05:28;25.57;;;2.03;;
2772;SDS011;1394;47.044;15.744;2023-04-06T03:07:57;25.00;;;1.97;;
2772;SDS011;1394;47.044;15.744;2023-04-06T03:10:24;25.70;;;2.00;;
2772;SDS011;1394;47.044;15.744;2023-04-06T03:12:51;25.93;;;2.30;;
2772;SDS011;1394;47.044;15.744;2023-04-06T03:15:18;25.73;;;2.20;;
2772;SDS011;1394;47.044;15.744;2023-04-06T03:17:47;26.23;;;2.53;;
2772;SDS011;1394;47.044;15.744;2023-04-06T03:20:14;24.77;;;1.87;;
2772;SDS011;1394;47.044;15.744;2023-04-06T03:22:42;25.37;;;1.80;;
2772;SDS011;1394;47.044;15.744;2023-04-06T03:25:10;25.00;;;2.00;;
2772;SDS011;1394;47.044;15.744;2023-04-06T03:27:38;25.20;;;1.80;;
2772;SDS011;1394;47.044;15.744;2023-04-06T03:30:06;25.37;;;2.00;;
2772;SDS011;1394;47.044;15.744;2023-04-06T03:32:34;25.33;;;2.00;;
2772;SDS011;1394;47.044;15.744;2023-04-06T03:35:01;25.63;;;2.07;;
2772;SDS011;1394;47.044;15.744;2023-04-06T03:37:28;25.13;;;2.47;;
2772;SDS011;1394;47.044;15.744;2023-04-06T03:39:56;26.20;;;1.87;;
2772;SDS011;1394;47.044;15.744;2023-04-06T03:42:27;25.73;;;2.10;;
2772;SDS011;1394;47.044;15.744;2023-04-06T03:44:55;25.73;;;1.97;;
2772;SDS011;1394;47.044;15.744;2023-04-06T03:47:23;25.23;;;2.23;;
2772;SDS011;1394;47.044;15.744;2023-04-06T03:49:50;25.87;;;2.33;;
2772;SDS011;1394;47.044;15.744;2023-04-06T03:52:17;24.90;;;1.77;;
2772;SDS011;1394;47.044;15.744;2023-04-06T03:54:44;26.90;;;1.97;;
2772;SDS011;1394;47.044;15.744;2023-04-06T03:57:12;25.33;;;2.20;;
2772;SDS011;1394;47.044;15.744;2023-04-06T03:59:41;25.10;;;1.90;;
2772;SDS011;1394;47.044;15.744;2023-04-06T04:02:08;25.37;;;2.00;;
2772;SDS011;1394;47.044;15.744;2023-04-06T04:04:35;25.27;;;2.10;;
2772;SDS011;1394;47.044;15.744;2023-04-06T04:07:02;25.63;;;2.33;;
2772;SDS011;1394;47.044;15.744;2023-04-06T04:09:29;26.17;;;2.20;;
2772;SDS011;1394;47.044;15.744;2023-04-06T04:11:57;24.60;;;1.80;;
2772;SDS011;1394;47.044;15.744;2023-04-06T04:14:24;25.70;;;2.50;;
2772;SDS011;1394;47.044;15.744;2023-04-06T04:16:52;25.13;;;2.13;;
2772;SDS011;1394;47.044;15.744;2023-04-06T04:19:20;26.17;;;3.00;;
2772;SDS011;1394;47.044;15.744;2023-04-06T04:21:47;25.83;;;1.90;;
2772;SDS011;1394;47.044;15.744;2023-04-06T04:24:14;25.63;;;2.20;;
2772;SDS011;1394;47.044;15.744;2023-04-06T04:26:42;26.77;;;2.43;;
2772;SDS011;1394;47.044;15.744;2023-04-06T04:29:09;27.57;;;3.70;;
2772;SDS011;1394;47.044;15.744;2023-04-06T04:31:36;26.07;;;2.40;;
2772;SDS011;1394;47.044;15.744;2023-04-06T04:34:05;25.57;;;2.00;;
2772;SDS011;1394;47.044;15.744;2023-04-06T04:36:32;27.33;;;2.13;;
2772;SDS011;1394;47.044;15.744;2023-04-06T04:39:00;25.70;;;2.30;;
2772;SDS011;1394;47.044;15.744;2023-04-06T04:41:27;26.83;;;2.57;;
2772;SDS011;1394;47.044;15.744;2023-04-06T04:43:54;25.53;;;2.07;;
2772;SDS011;1394;47.044;15.744;2023-04-06T04:46:21;26.57;;;2.20;;
2772;SDS011;1394;47.044;15.744;2023-04-06T04:48:48;25.00;;;2.00;;
2772;SDS011;1394;47.044;15.744;2023-04-06T04:51:17;25.60;;;2.27;;
2772;SDS011;1394;47.044;15.744;2023-04-06T04:53:45;27.70;;;4.80;;
2772;SDS011;1394;47.044;15.744;2023-04-06T04:56:13;26.53;;;2.80;;
2772;SDS011;1394;47.044;15.744;2023-04-06T04:58:40;25.43;;;2.00;;
2772;SDS011;1394;47.044;15.744;2023-04-06T05:01:08;25.57;;;2.37;;
2772;SDS011;1394;47.044;15.744;2023-04-06T05:03:35;25.60;;;2.43;;
2772;SDS011;1394;47.044;15.744;2023-04-06T05:06:04;26.90;;;2.77;;
2772;SDS011;1394;47.044;15.744;2023-04-06T05:08:33;26.30;;;3.00;;
2772;SDS011;1394;47.044;15.744;2023-04-06T05:11:02;30.83;;;6.77;;
2772;SDS011;1394;47.044;15.744;2023-04-06T05:13:29;29.50;;;5.10;;
2772;SDS011;1394;47.044;15.744;2023-04-06T05:16:00;27.07;;;3.57;;
2772;SDS011;1394;47.044;15.744;2023-04-06T05:18:28;29.40;;;2.40;;
2772;SDS011;1394;47.044;15.744;2023-04-06T05:20:56;26.27;;;2.40;;
2772;SDS011;1394;47.044;15.744;2023-04-06T05:23:25;26.00;;;2.50;;
2772;SDS011;1394;47.044;15.744;2023-04-06T05:25:55;25.07;;;2.07;;
2772;SDS011;1394;47.044;15.744;2023-04-06T05:28:25;25.83;;;2.40;;
2772;SDS011;1394;47.044;15.744;2023-04-06T05:30:54;26.97;;;2.50;;
2772;SDS011;1394;47.044;15.744;2023-04-06T05:33:24;25.53;;;2.10;;
2772;SDS011;1394;47.044;15.744;2023-04-06T05:35:51;25.37;;;2.37;;
2772;SDS011;1394;47.044;15.744;2023-04-06T05:38:18;25.67;;;2.30;;
2772;SDS011;1394;47.044;15.744;2023-04-06T05:40:46;26.43;;;3.00;;
2772;SDS011;1394;47.044;15.744;2023-04-06T05:43:17;26.27;;;2.50;;
2772;SDS011;1394;47.044;15.744;2023-04-06T05:45:45;26.50;;;2.50;;
2772;SDS011;1394;47.044;15.744;2023-04-06T05:48:14;26.10;;;2.60;;
2772;SDS011;1394;47.044;15.744;2023-04-06T05:50:41;25.20;;;2.20;;
2772;SDS011;1394;47.044;15.744;2023-04-06T05:53:09;26.77;;;2.80;;
2772;SDS011;1394;47.044;15.744;2023-04-06T05:55:36;25.60;;;2.37;;
2772;SDS011;1394;47.044;15.744;2023-04-06T05:58:06;25.90;;;2.40;;
2772;SDS011;1394;47.044;15.744;2023-04-06T06:00:36;25.33;;;2.63;;
2772;SDS011;1394;47.044;15.744;2023-04-06T06:03:04;26.30;;;2.23;;
2772;SDS011;1394;47.044;15.744;2023-04-06T06:05:31;25.87;;;2.47;;
2772;SDS011;1394;47.044;15.744;2023-04-06T06:07:59;25.30;;;2.10;;
2772;SDS011;1394;47.044;15.744;2023-04-06T06:10:27;26.50;;;2.20;;
2772;SDS011;1394;47.044;15.744;2023-04-06T06:12:57;25.73;;;2.40;;
2772;SDS011;1394;47.044;15.744;2023-04-06T06:15:28;25.53;;;2.20;;
2772;SDS011;1394;47.044;15.744;2023-04-06T06:17:57;26.60;;;2.40;;
2772;SDS011;1394;47.044;15.744;2023-04-06T06:20:27;26.03;;;2.33;;
2772;SDS011;1394;47.044;15.744;2023-04-06T06:22:55;27.43;;;2.30;;
2772;SDS011;1394;47.044;15.744;2023-04-06T06:25:23;25.50;;;2.60;;
2772;SDS011;1394;47.044;15.744;2023-04-06T06:27:50;26.70;;;2.40;;
2772;SDS011;1394;47.044;15.744;2023-04-06T06:30:19;25.97;;;2.80;;
2772;SDS011;1394;47.044;15.744;2023-04-06T06:32:46;25.37;;;2.43;;
2772;SDS011;1394;47.044;15.744;2023-04-06T06:35:15;25.50;;;2.30;;
2772;SDS011;1394;47.044;15.744;2023-04-06T06:37:42;25.80;;;2.40;;
2772;SDS011;1394;47.044;15.744;2023-04-06T06:40:10;28.40;;;2.97;;
2772;SDS011;1394;47.044;15.744;2023-04-06T06:42:38;25.13;;;1.97;;
2772;SDS011;1394;47.044;15.744;2023-04-06T06:45:06;26.60;;;2.57;;
2772;SDS011;1394;47.044;15.744;2023-04-06T06:47:41;25.10;;;2.13;;
2772;SDS011;1394;47.044;15.744;2023-04-06T06:50:08;25.40;;;2.43;;
2772;SDS011;1394;47.044;15.744;2023-04-06T06:52:38;25.63;;;2.33;;
2772;SDS011;1394;47.044;15.744;2023-04-06T06:55:07;25.67;;;2.60;;
2772;SDS011;1394;47.044;15.744;2023-04-06T06:57:36;25.90;;;2.70;;
2772;SDS011;1394;47.044;15.744;2023-04-06T07:00:07;26.17;;;2.33;;
2772;SDS011;1394;47.044;15.744;2023-04-06T07:02:38;25.17;;;2.00;;
2772;SDS011;1394;47.044;15.744;2023-04-06T07:05:06;25.90;;;2.53;;
2772;SDS011;1394;47.044;15.744;2023-04-06T07:07:36;25.30;;;2.23;;
2772;SDS011;1394;47.044;15.744;2023-04-06T07:10:05;26.20;;;2.40;;
2772;SDS011;1394;47.044;15.744;2023-04-06T07:12:33;25.60;;;2.30;;
2772;SDS011;1394;47.044;15.744;2023-04-06T07:15:00;26.23;;;2.30;;
2772;SDS011;1394;47.044;15.744;2023-04-06T07:17:29;28.13;;;2.00;;
2772;SDS011;1394;47.044;15.744;2023-04-06T07:19:57;24.87;;;1.97;;
2772;SDS011;1394;47.044;15.744;2023-04-06T07:22:28;25.40;;;1.90;;
2772;SDS011;1394;47.044;15.744;2023-04-06T07:24:59;26.17;;;2.30;;
2772;SDS011;1394;47.044;15.744;2023-04-06T07:27:28;25.33;;;2.00;;
2772;SDS011;1394;47.044;15.744;2023-04-06T07:29:55;25.30;;;2.00;;
2772;SDS011;1394;47.044;15.744;2023-04-06T07:32:22;25.00;;;1.47;;
2772;SDS011;1394;47.044;15.744;2023-04-06T07:34:51;24.50;;;1.53;;
2772;SDS011;1394;47.044;15.744;2023-04-06T07:37:21;24.63;;;1.57;;
2772;SDS011;1394;47.044;15.744;2023-04-06T07:39:49;25.23;;;1.57;;
2772;SDS011;1394;47.044;15.744;2023-04-06T07:42:16;24.37;;;1.30;;
2772;SDS011;1394;47.044;15.744;2023-04-06T07:44:47;24.50;;;1.20;;
2772;SDS011;1394;47.044;15.744;2023-04-06T07:47:16;24.57;;;1.30;;
2772;SDS011;1394;47.044;15.744;2023-04-06T07:49:43;24.60;;;1.23;;
2772;SDS011;1394;47.044;15.744;2023-04-06T07:52:11;25.00;;;1.30;;
2772;SDS011;1394;47.044;15.744;2023-04-06T07:54:40;24.50;;;1.30;;
2772;SDS011;1394;47.044;15.744;2023-04-06T07:57:10;24.33;;;1.30;;
2772;SDS011;1394;47.044;15.744;2023-04-06T07:59:38;24.90;;;1.20;;
2772;SDS011;1394;47.044;15.744;2023-04-06T08:02:08;25.37;;;1.67;;
2772;SDS011;1394;47.044;15.744;2023-04-06T08:04:35;24.40;;;1.20;;
2772;SDS011;1394;47.044;15.744;2023-04-06T08:07:02;24.60;;;1.47;;
2772;SDS011;1394;47.044;15.744;2023-04-06T08:09:30;24.50;;;1.33;;
2772;SDS011;1394;47.044;15.744;2023-04-06T08:11:57;27.90;;;1.50;;
2772;SDS011;1394;47.044;15.744;2023-04-06T08:14:26;24.93;;;1.50;;
2772;SDS011;1394;47.044;15.744;2023-04-06T08:16:56;24.90;;;1.60;;
2772;SDS011;1394;47.044;15.744;2023-04-06T08:19:27;25.20;;;1.30;;
2772;SDS011;1394;47.044;15.744;2023-04-06T08:21:54;24.47;;;1.30;;
2772;SDS011;1394;47.044;15.744;2023-04-06T08:24:22;24.93;;;1.37;;
2772;SDS011;1394;47.044;15.744;2023-04-06T08:26:50;24.63;;;1.20;;
2772;SDS011;1394;47.044;15.744;2023-04-06T08:29:18;25.20;;;1.40;;
2772;SDS011;1394;47.044;15.744;2023-04-06T08:31:46;24.70;;;1.40;;
2772;SDS011;1394;47.044;15.744;2023-04-06T08:34:13;25.07;;;1.50;;
2772;SDS011;1394;47.044;15.744;2023-04-06T08:36:43;25.37;;;1.63;;
2772;SDS011;1394;47.044;15.744;2023-04-06T08:39:10;24.87;;;1.40;;
2772;SDS011;1394;47.044;15.744;2023-04-06T08:41:37;24.67;;;1.30;;
2772;SDS011;1394;47.044;15.744;2023-04-06T08:44:05;25.47;;;1.27;;
2772;SDS011;1394;47.044;15.744;2023-04-06T08:46:32;24.80;;;1.27;;
2772;SDS011;1394;47.044;15.744;2023-04-06T08:49:00;24.50;;;1.33;;
2772;SDS011;1394;47.044;15.744;2023-04-06T08:51:31;24.47;;;1.20;;
2772;SDS011;1394;47.044;15.744;2023-04-06T08:54:01;24.50;;;1.20;;
2772;SDS011;1394;47.044;15.744;2023-04-06T08:56:28;24.37;;;1.20;;
2772;SDS011;1394;47.044;15.744;2023-04-06T08:58:56;24.40;;;1.10;;
2772;SDS011;1394;47.044;15.744;2023-04-06T09:01:25;25.10;;;1.13;;
2772;SDS011;1394;47.044;15.744;2023-04-06T09:03:53;24.50;;;1.10;;
2772;SDS011;1394;47.044;15.744;2023-04-06T09:06:22;24.43;;;1.30;;
2772;SDS011;1394;47.044;15.744;2023-04-06T09:08:49;25.17;;;1.30;;
2772;SDS011;1394;47.044;15.744;2023-04-06T09:11:18;24.40;;;1.23;;
2772;SDS011;1394;47.044;15.744;2023-04-06T09:13:47;24.77;;;1.20;;
2772;SDS011;1394;47.044;15.744;2023-04-06T09:16:15;24.90;;;1.30;;
2772;SDS011;1394;47.044;15.744;2023-04-06T09:18:42;24.50;;;1.30;;
2772;SDS011;1394;47.044;15.744;2023-04-06T09:21:10;25.17;;;1.10;;
2772;SDS011;1394;47.044;15.744;2023-04-06T09:23:38;24.70;;;1.30;;
2772;SDS011;1394;47.044;15.744;2023-04-06T09:26:07;24.50;;;1.20;;
2772;SDS011;1394;47.044;15.744;2023-04-06T09:28:43;24.70;;;1.20;;
2772;SDS011;1394;47.044;15.744;2023-04-06T09:31:11;24.40;;;1.00;;
2772;SDS011;1394;47.044;15.744;2023-04-06T09:33:40;25.03;;;1.40;;
2772;SDS011;1394;47.044;15.744;2023-04-06T09:36:08;24.93;;;1.10;;
2772;SDS011;1394;47.044;15.744;2023-04-06T09:38:36;24.43;;;1.10;;
2772;SDS011;1394;47.044;15.744;2023-04-06T09:41:04;24.83;;;1.20;;
2772;SDS011;1394;47.044;15.744;2023-04-06T09:43:31;24.50;;;1.20;;
2772;SDS011;1394;47.044;15.744;2023-04-06T09:46:00;24.60;;;1.10;;
2772;SDS011;1394;47.044;15.744;2023-04-06T09:48:31;24.67;;;1.20;;
2772;SDS011;1394;47.044;15.744;2023-04-06T09:51:03;24.83;;;1.40;;
2772;SDS011;1394;47.044;15.744;2023-04-06T09:53:30;24.80;;;1.23;;
2772;SDS011;1394;47.044;15.744;2023-04-06T09:55:58;25.27;;;1.13;;
2772;SDS011;1394;47.044;15.744;2023-04-06T09:58:28;24.80;;;1.20;;
2772;SDS011;1394;47.044;15.744;2023-04-06T10:01:04;24.77;;;1.03;;
2772;SDS011;1394;47.044;15.744;2023-04-06T10:03:34;24.40;;;1.20;;
2772;SDS011;1394;47.044;15.744;2023-04-06T10:06:09;25.10;;;1.10;;
2772;SDS011;1394;47.044;15.744;2023-04-06T10:08:38;24.97;;;1.10;;
2772;SDS011;1394;47.044;15.744;2023-04-06T10:11:07;24.30;;;0.97;;
2772;SDS011;1394;47.044;15.744;2023-04-06T10:13:37;24.60;;;1.10;;
2772;SDS011;1394;47.044;15.744;2023-04-06T10:16:08;24.53;;;1.10;;
2772;SDS011;1394;47.044;15.744;2023-04-06T10:18:36;25.27;;;1.20;;
2772;SDS011;1394;47.044;15.744;2023-04-06T10:21:07;24.90;;;1.30;;
2772;SDS011;1394;47.044;15.744;2023-04-06T10:23:39;24.93;;;1.10;;
2772;SDS011;1394;47.044;15.744;2023-04-06T10:26:12;24.87;;;1.10;;
2772;SDS011;1394;47.044;15.744;2023-04-06T10:28:41;24.70;;;1.13;;
2772;SDS011;1394;47.044;15.744;2023-04-06T10:31:11;24.73;;;1.00;;
2772;SDS011;1394;47.044;15.744;2023-04-06T10:33:53;24.70;;;1.17;;
2772;SDS011;1394;47.044;15.744;2023-04-06T10:36:23;24.50;;;1.20;;
2772;SDS011;1394;47.044;15.744;2023-04-06T10:38:53;25.03;;;1.30;;
2772;SDS011;1394;47.044;15.744;2023-04-06T10:41:34;24.90;;;0.93;;
2772;SDS011;1394;47.044;15.744;2023-04-06T10:44:02;24.47;;;1.10;;
2772;SDS011;1394;47.044;15.744;2023-04-06T10:46:33;24.40;;;0.90;;
2772;SDS011;1394;47.044;15.744;2023-04-06T10:49:11;24.70;;;1.00;;
2772;SDS011;1394;47.044;15.744;2023-04-06T10:51:39;25.13;;;1.10;;
2772;SDS011;1394;47.044;15.744;2023-04-06T10:54:08;25.37;;;1.30;;
2772;SDS011;1394;47.044;15.744;2023-04-06T10:56:38;24.93;;;1.10;;
2772;SDS011;1394;47.044;15.744;2023-04-06T10:59:09;24.57;;;0.90;;
2772;SDS011;1394;47.044;15.744;2023-04-06T11:01:39;25.57;;;1.40;;
2772;SDS011;1394;47.044;15.744;2023-04-06T11:04:15;25.80;;;1.00;;
2772;SDS011;1394;47.044;15.744;2023-04-06T11:07:01;25.17;;;1.00;;
2772;SDS011;1394;47.044;15.744;2023-04-06T11:09:29;25.43;;;1.10;;
2772;SDS011;1394;47.044;15.744;2023-04-06T11:12:01;25.33;;;1.03;;
2772;SDS011;1394;47.044;15.744;2023-04-06T11:14:29;25.10;;;1.17;;
2772;SDS011;1394;47.044;15.744;2023-04-06T11:16:58;25.43;;;1.10;;
2772;SDS011;1394;47.044;15.744;2023-04-06T11:19:27;25.20;;;1.00;;
2772;SDS011;1394;47.044;15.744;2023-04-06T11:21:55;25.10;;;1.00;;
2772;SDS011;1394;47.044;15.744;2023-04-06T11:24:23;25.97;;;1.17;;
2772;SDS011;1394;47.044;15.744;2023-04-06T11:26:54;25.60;;;0.90;;
2772;SDS011;1394;47.044;15.744;2023-04-06T11:29:24;25.20;;;1.00;;
2772;SDS011;1394;47.044;15.744;2023-04-06T11:31:53;25.60;;;0.90;;
2772;SDS011;1394;47.044;15.744;2023-04-06T11:34:25;25.37;;;1.03;;
2772;SDS011;1394;47.044;15.744;2023-04-06T11:36:54;25.40;;;0.90;;
2772;SDS011;1394;47.044;15.744;2023-04-06T11:39:23;25.20;;;0.93;;
2772;SDS011;1394;47.044;15.744;2023-04-06T11:41:53;25.67;;;1.00;;
2772;SDS011;1394;47.044;15.744;2023-04-06T11:44:28;25.00;;;0.97;;
2772;SDS011;1394;47.044;15.744;2023-04-06T11:46:59;24.97;;;1.00;;
2772;SDS011;1394;47.044;15.744;2023-04-06T11:49:28;25.00;;;0.80;;
2772;SDS011;1394;47.044;15.744;2023-04-06T11:51:55;25.17;;;0.90;;
2772;SDS011;1394;47.044;15.744;2023-04-06T11:54:29;25.30;;;0.90;;
2772;SDS011;1394;47.044;15.744;2023-04-06T11:56:58;25.40;;;1.10;;
2772;SDS011;1394;47.044;15.744;2023-04-06T11:59:28;25.30;;;1.00;;
2772;SDS011;1394;47.044;15.744;2023-04-06T12:01:56;25.47;;;1.00;;
2772;SDS011;1394;47.044;15.744;2023-04-06T12:04:23;25.87;;;1.00;;
2772;SDS011;1394;47.044;15.744;2023-04-06T12:06:54;25.27;;;0.90;;
2772;SDS011;1394;47.044;15.744;2023-04-06T12:09:25;25.00;;;0.80;;
2772;SDS011;1394;47.044;15.744;2023-04-06T12:11:53;25.10;;;1.00;;
2772;SDS011;1394;47.044;15.744;2023-04-06T12:14:20;25.30;;;1.00;;
2772;SDS011;1394;47.044;15.744;2023-04-06T12:16:49;25.83;;;1.03;;
2772;SDS011;1394;47.044;15.744;2023-04-06T12:19:16;24.97;;;0.80;;
2772;SDS011;1394;47.044;15.744;2023-04-06T12:21:43;24.90;;;0.80;;
2772;SDS011;1394;47.044;15.744;2023-04-06T12:24:13;25.10;;;0.70;;
2772;SDS011;1394;47.044;15.744;2023-04-06T12:26:40;25.20;;;0.80;;
2772;SDS011;1394;47.044;15.744;2023-04-06T12:29:07;25.60;;;0.93;;
2772;SDS011;1394;47.044;15.744;2023-04-06T12:31:35;25.20;;;0.90;;
2772;SDS011;1394;47.044;15.744;2023-04-06T12:34:03;25.00;;;0.80;;
2772;SDS011;1394;47.044;15.744;2023-04-06T12:36:32;25.10;;;1.00;;
2772;SDS011;1394;47.044;15.744;2023-04-06T12:39:00;25.57;;;0.93;;
2772;SDS011;1394;47.044;15.744;2023-04-06T12:41:31;25.30;;;0.90;;
2772;SDS011;1394;47.044;15.744;2023-04-06T12:44:00;25.50;;;0.80;;
2772;SDS011;1394;47.044;15.744;2023-04-06T12:46:32;25.20;;;0.77;;
2772;SDS011;1394;47.044;15.744;2023-04-06T12:49:00;27.80;;;0.77;;
2772;SDS011;1394;47.044;15.744;2023-04-06T12:51:28;25.40;;;1.10;;
2772;SDS011;1394;47.044;15.744;2023-04-06T12:53:56;25.20;;;0.80;;
2772;SDS011;1394;47.044;15.744;2023-04-06T12:56:23;25.30;;;0.90;;
2772;SDS011;1394;47.044;15.744;2023-04-06T12:58:55;25.73;;;0.80;;
2772;SDS011;1394;47.044;15.744;2023-04-06T13:01:22;25.10;;;0.80;;
2772;SDS011;1394;47.044;15.744;2023-04-06T13:03:52;25.00;;;0.83;;
2772;SDS011;1394;47.044;15.744;2023-04-06T13:06:20;25.00;;;0.70;;
2772;SDS011;1394;47.044;15.744;2023-04-06T13:08:54;25.00;;;0.70;;
2772;SDS011;1394;47.044;15.744;2023-04-06T13:11:21;24.93;;;0.70;;
2772;SDS011;1394;47.044;15.744;2023-04-06T13:13:49;25.50;;;1.00;;
2772;SDS011;1394;47.044;15.744;2023-04-06T13:16:18;26.47;;;0.80;;
2772;SDS011;1394;47.044;15.744;2023-04-06T13:18:45;25.17;;;0.77;;
2772;SDS011;1394;47.044;15.744;2023-04-06T13:21:14;25.10;;;0.80;;
2772;SDS011;1394;47.044;15.744;2023-04-06T13:23:42;25.17;;;0.80;;
2772;SDS011;1394;47.044;15.744;2023-04-06T13:26:10;24.80;;;0.70;;
2772;SDS011;1394;47.044;15.744;2023-04-06T13:28:38;24.97;;;0.70;;
2772;SDS011;1394;47.044;15.744;2023-04-06T13:31:05;25.53;;;0.97;;
2772;SDS011;1394;47.044;15.744;2023-04-06T13:33:34;26.37;;;0.93;;
2772;SDS011;1394;47.044;15.744;2023-04-06T13:36:03;25.40;;;0.80;;
2772;SDS011;1394;47.044;15.744;2023-04-06T13:38:32;25.50;;;0.80;;
2772;SDS011;1394;47.044;15.744;2023-04-06T13:41:00;25.37;;;0.80;;
2772;SDS011;1394;47.044;15.744;2023-04-06T13:43:29;25.40;;;0.80;;
2772;SDS011;1394;47.044;15.744;2023-04-06T13:45:57;25.37;;;0.77;;
2772;SDS011;1394;47.044;15.744;2023-04-06T13:48:25;25.90;;;0.97;;
2772;SDS011;1394;47.044;15.744;2023-04-06T13:50:54;25.40;;;0.80;;
2772;SDS011;1394;47.044;15.744;2023-04-06T13:53:21;25.20;;;0.70;;
2772;SDS011;1394;47.044;15.744;2023-04-06T13:55:54;25.30;;;0.70;;
2772;SDS011;1394;47.044;15.744;2023-04-06T13:58:22;25.30;;;0.90;;
2772;SDS011;1394;47.044;15.744;2023-04-06T14:00:50;25.27;;;0.77;;
2772;SDS011;1394;47.044;15.744;2023-04-06T14:03:17;25.17;;;0.70;;
2772;SDS011;1394;47.044;15.744;2023-04-06T14:05:47;25.20;;;0.80;;
2772;SDS011;1394;47.044;15.744;2023-04-06T14:08:15;25.10;;;0.70;;
2772;SDS011;1394;47.044;15.744;2023-04-06T14:10:44;25.00;;;0.80;;
2772;SDS011;1394;47.044;15.744;2023-04-06T14:13:11;25.73;;;0.80;;
2772;SDS011;1394;47.044;15.744;2023-04-06T14:15:40;25.67;;;0.70;;
2772;SDS011;1394;47.044;15.744;2023-04-06T14:18:09;25.27;;;0.70;;
2772;SDS011;1394;47.044;15.744;2023-04-06T14:20:36;25.47;;;0.90;;
2772;SDS011;1394;47.044;15.744;2023-04-06T14:23:04;24.80;;;0.63;;
2772;SDS011;1394;47.044;15.744;2023-04-06T14:25:32;25.27;;;0.70;;
2772;SDS011;1394;47.044;15.744;2023-04-06T14:27:59;24.97;;;0.70;;
2772;SDS011;1394;47.044;15.744;2023-04-06T14:30:27;25.63;;;0.90;;
2772;SDS011;1394;47.044;15.744;2023-04-06T14:32:56;25.10;;;0.80;;
2772;SDS011;1394;47.044;15.744;2023-04-06T14:35:25;25.10;;;0.60;;
2772;SDS011;1394;47.044;15.744;2023-04-06T14:37:56;25.40;;;0.90;;
2772;SDS011;1394;47.044;15.744;2023-04-06T14:40:24;24.90;;;0.77;;
2772;SDS011;1394;47.044;15.744;2023-04-06T14:42:52;24.90;;;0.70;;
2772;SDS011;1394;47.044;15.744;2023-04-06T14:45:23;25.13;;;0.80;;
2772;SDS011;1394;47.044;15.744;2023-04-06T14:47:51;25.10;;;0.80;;
2772;SDS011;1394;47.044;15.744;2023-04-06T14:50:21;25.00;;;0.90;;
2772;SDS011;1394;47.044;15.744;2023-04-06T14:52:50;25.00;;;0.80;;
2772;SDS011;1394;47.044;15.744;2023-04-06T14:55:18;25.30;;;0.63;;